createdAt,value
2023-04-28T00:00:02.505Z,101153.50
2023-04-28T00:02:32.988Z,101141.16
2023-04-28T00:05:01.017Z,101142.91
2023-04-28T00:07:28.980Z,101133.09
2023-04-28T00:09:57.066Z,101128.72
2023-04-28T00:12:24.988Z,101130.41
2023-04-28T00:14:52.843Z,101126.84
2023-04-28T00:17:22.506Z,101125.94
2023-04-28T00:19:51.335Z,101119.75
2023-04-28T00:22:19.318Z,101111.81
2023-04-28T00:24:54.199Z,101108.28
2023-04-28T00:27:21.978Z,101104.69
2023-04-28T00:29:49.796Z,101108.16
2023-04-28T00:32:17.630Z,101105.50
2023-04-28T00:34:46.691Z,101100.13
2023-04-28T00:37:14.443Z,101102.66
2023-04-28T00:39:42.577Z,101106.16
2023-04-28T00:42:10.318Z,101102.66
2023-04-28T00:44:38.135Z,101093.81
2023-04-28T00:47:06.207Z,101093.81
2023-04-28T00:49:35.041Z,101084.19
2023-04-28T00:52:07.116Z,101082.44
2023-04-28T00:54:35.790Z,101093.00
2023-04-28T00:57:04.934Z,101073.63
2023-04-28T00:59:32.900Z,101073.53
2023-04-28T01:02:01.994Z,101070.00
2023-04-28T01:04:30.952Z,101076.97
2023-04-28T01:07:00.058Z,101074.25
2023-04-28T01:09:29.242Z,101069.81
2023-04-28T01:11:58.621Z,101072.47
2023-04-28T01:14:47.713Z,101071.59
2023-04-28T01:17:15.844Z,101061.03
2023-04-28T01:19:43.969Z,101069.78
2023-04-28T01:22:31.843Z,101066.22
2023-04-28T01:25:01.174Z,101070.63
2023-04-28T01:27:29.194Z,101063.53
2023-04-28T01:29:57.377Z,101065.22
2023-04-28T01:32:25.598Z,101067.78
2023-04-28T01:34:53.378Z,101063.34
2023-04-28T01:37:21.382Z,101062.38
2023-04-28T01:39:49.198Z,101058.00
2023-04-28T01:42:18.303Z,101055.41
2023-04-28T01:44:46.075Z,101058.91
2023-04-28T01:47:13.797Z,101050.13
2023-04-28T01:49:41.596Z,101046.59
2023-04-28T01:52:09.388Z,101045.66
2023-04-28T01:54:37.725Z,101045.75
2023-04-28T01:57:06.119Z,101041.31
2023-04-28T01:59:35.393Z,101037.88
2023-04-28T02:02:03.330Z,101035.25
2023-04-28T02:04:31.291Z,101030.00
2023-04-28T02:06:59.699Z,101029.09
2023-04-28T02:09:27.942Z,101037.88
2023-04-28T02:11:57.594Z,101031.75
2023-04-28T02:14:25.464Z,101025.56
2023-04-28T02:16:54.662Z,101026.47
2023-04-28T02:19:22.391Z,101028.22
2023-04-28T02:21:50.149Z,101014.16
2023-04-28T02:24:18.229Z,101015.00
2023-04-28T02:26:46.333Z,101022.00
2023-04-28T02:29:14.038Z,101019.34
2023-04-28T02:31:41.898Z,101019.34
2023-04-28T02:34:11.220Z,101015.81
2023-04-28T02:36:40.413Z,101010.50
2023-04-28T02:39:08.852Z,101012.25
2023-04-28T02:41:36.624Z,101014.91
2023-04-28T02:44:04.334Z,100999.06
2023-04-28T02:46:32.301Z,100993.78
2023-04-28T02:49:00.446Z,100997.25
2023-04-28T02:51:29.632Z,100990.19
2023-04-28T02:53:57.400Z,100995.47
2023-04-28T02:56:25.571Z,100995.38
2023-04-28T02:58:53.550Z,100995.31
2023-04-28T03:01:21.334Z,100989.16
2023-04-28T03:03:49.318Z,100982.97
2023-04-28T03:06:17.168Z,100981.19
2023-04-28T03:08:46.319Z,100979.38
2023-04-28T03:11:14.132Z,100968.84
2023-04-28T03:13:42.004Z,100966.22
2023-04-28T03:16:10.080Z,100965.25
2023-04-28T03:18:37.846Z,100961.75
2023-04-28T03:21:06.119Z,100963.50
2023-04-28T03:23:33.937Z,100956.44
2023-04-28T03:26:04.142Z,100952.94
2023-04-28T03:28:32.317Z,100947.66
2023-04-28T03:31:01.139Z,100943.25
2023-04-28T03:33:28.929Z,100945.84
2023-04-28T03:35:57.075Z,100937.94
2023-04-28T03:38:24.839Z,100931.78
2023-04-28T03:40:52.849Z,100923.84
2023-04-28T03:43:35.482Z,100927.38
2023-04-28T03:46:24.051Z,100927.38
2023-04-28T03:48:53.355Z,100929.09
2023-04-28T03:51:21.285Z,100931.72
2023-04-28T03:53:49.003Z,100928.16
2023-04-28T03:56:16.850Z,100937.78
2023-04-28T03:58:45.925Z,100926.31
2023-04-28T04:01:13.611Z,100926.25
2023-04-28T04:03:41.841Z,100920.00
2023-04-28T04:06:09.906Z,100919.97
2023-04-28T04:08:37.775Z,100924.25
2023-04-28T04:11:05.568Z,100912.78
2023-04-28T04:13:33.379Z,100917.97
2023-04-28T04:16:03.934Z,100911.78
2023-04-28T04:18:31.909Z,100911.75
2023-04-28T04:21:11.398Z,100909.91
2023-04-28T04:23:39.262Z,100907.28
2023-04-28T04:26:07.117Z,100907.28
2023-04-28T04:28:35.065Z,100902.88
2023-04-28T04:31:04.539Z,100904.59
2023-04-28T04:33:32.338Z,100905.47
2023-04-28T04:36:00.286Z,100901.00
2023-04-28T04:38:28.062Z,100900.97
2023-04-28T04:40:57.425Z,100900.94
2023-04-28T04:43:25.341Z,100900.06
2023-04-28T04:45:54.105Z,100895.63
2023-04-28T04:48:23.537Z,100892.13
2023-04-28T04:50:51.252Z,100902.63
2023-04-28T04:53:19.030Z,100894.75
2023-04-28T04:55:46.880Z,100890.34
2023-04-28T04:58:16.204Z,100900.88
2023-04-28T05:01:04.072Z,100896.50
2023-04-28T05:03:33.535Z,100882.47
2023-04-28T05:06:01.581Z,100882.47
2023-04-28T05:08:42.136Z,100876.38
2023-04-28T05:11:09.879Z,100877.28
2023-04-28T05:13:37.738Z,100877.34
2023-04-28T05:16:06.446Z,100887.09
2023-04-28T05:18:48.387Z,100882.81
2023-04-28T05:21:16.588Z,100883.72
2023-04-28T05:23:44.283Z,100888.25
2023-04-28T05:26:12.514Z,100883.09
2023-04-28T05:28:40.776Z,100879.72
2023-04-28T05:31:08.710Z,100867.47
2023-04-28T05:33:36.413Z,100864.13
2023-04-28T05:36:06.164Z,100867.78
2023-04-28T05:38:33.997Z,100862.63
2023-04-28T05:41:02.532Z,100854.00
2023-04-28T05:43:32.251Z,100864.63
2023-04-28T05:46:00.239Z,100863.91
2023-04-28T05:48:28.292Z,100857.78
2023-04-28T05:50:56.165Z,100861.44
2023-04-28T05:53:25.789Z,100858.03
2023-04-28T05:55:53.592Z,100862.63
2023-04-28T05:58:22.030Z,100850.44
2023-04-28T06:00:51.093Z,100842.59
2023-04-28T06:03:19.953Z,100835.75
2023-04-28T06:05:48.522Z,100837.63
2023-04-28T06:08:17.229Z,100842.16
2023-04-28T06:10:46.349Z,100841.47
2023-04-28T06:13:14.807Z,100838.94
2023-04-28T06:15:43.063Z,100840.81
2023-04-28T06:18:11.256Z,100833.09
2023-04-28T06:20:39.147Z,100842.03
2023-04-28T06:23:07.567Z,100836.88
2023-04-28T06:25:36.255Z,100833.56
2023-04-28T06:28:06.363Z,100836.38
2023-04-28T06:30:34.371Z,100831.22
2023-04-28T06:33:05.334Z,100828.72
2023-04-28T06:35:35.729Z,100828.91
2023-04-28T06:38:03.718Z,100822.00
2023-04-28T06:40:31.801Z,100824.78
2023-04-28T06:43:01.537Z,100822.28
2023-04-28T06:45:53.741Z,100826.84
2023-04-28T06:48:22.326Z,100821.69
2023-04-28T06:50:50.538Z,100812.91
2023-04-28T06:53:18.357Z,100809.47
2023-04-28T06:55:46.310Z,100815.72
2023-04-28T06:58:14.098Z,100808.81
2023-04-28T07:00:42.114Z,100814.19
2023-04-28T07:03:11.512Z,100801.13
2023-04-28T07:05:39.298Z,100796.81
2023-04-28T07:08:07.454Z,100783.75
2023-04-28T07:10:35.423Z,100787.34
2023-04-28T07:13:03.225Z,100789.25
2023-04-28T07:15:31.468Z,100784.06
2023-04-28T07:17:59.255Z,100772.69
2023-04-28T07:20:28.538Z,100769.28
2023-04-28T07:22:56.436Z,100769.41
2023-04-28T07:25:24.387Z,100760.69
2023-04-28T07:27:52.345Z,100758.13
2023-04-28T07:32:53.306Z,100751.25
2023-04-28T07:35:21.246Z,100753.03
2023-04-28T07:37:50.561Z,100754.81
2023-04-28T07:40:18.429Z,100750.41
2023-04-28T07:42:46.315Z,100749.53
2023-04-28T07:45:14.538Z,100751.31
2023-04-28T07:47:42.465Z,100743.41
2023-04-28T07:50:12.440Z,100741.63
2023-04-28T07:52:40.642Z,100739.84
2023-04-28T07:55:10.286Z,100739.84
2023-04-28T07:57:38.168Z,100739.84
2023-04-28T08:00:07.270Z,100746.94
2023-04-28T08:02:39.671Z,100738.94
2023-04-28T08:05:09.325Z,100738.88
2023-04-28T08:07:38.121Z,100731.72
2023-04-28T08:10:06.915Z,100729.03
2023-04-28T08:12:36.417Z,100725.47
2023-04-28T08:15:04.954Z,100725.41
2023-04-28T08:17:32.743Z,100732.44
2023-04-28T08:20:00.469Z,100724.44
2023-04-28T08:22:28.212Z,100719.97
2023-04-28T08:24:55.931Z,100704.84
2023-04-28T08:27:25.698Z,100720.75
2023-04-28T08:29:54.839Z,100722.44
2023-04-28T08:32:22.719Z,100717.09
2023-04-28T08:34:50.479Z,100718.81
2023-04-28T08:37:18.565Z,100724.13
2023-04-28T08:39:46.529Z,100728.56
2023-04-28T08:42:15.070Z,100724.97
2023-04-28T08:44:54.361Z,100727.66
2023-04-28T08:47:35.055Z,100724.91
2023-04-28T08:50:10.117Z,100730.16
2023-04-28T08:52:38.028Z,100731.91
2023-04-28T08:55:12.760Z,100723.84
2023-04-28T08:57:45.070Z,100723.78
2023-04-28T09:00:19.917Z,100721.09
2023-04-28T09:03:04.287Z,100715.72
2023-04-28T09:05:49.370Z,100720.94
2023-04-28T09:08:19.971Z,100710.22
2023-04-28T09:10:48.691Z,100711.91
2023-04-28T09:13:28.350Z,100710.06
2023-04-28T09:16:02.966Z,100707.28
2023-04-28T09:18:33.487Z,100708.06
2023-04-28T09:21:10.996Z,100707.06
2023-04-28T09:23:51.138Z,100703.41
2023-04-28T09:26:21.654Z,100707.75
2023-04-28T09:28:57.380Z,100704.16
2023-04-28T09:31:44.134Z,100702.28
2023-04-28T09:34:14.318Z,100702.25
2023-04-28T09:36:46.166Z,100697.78
2023-04-28T09:39:16.838Z,100694.13
2023-04-28T09:41:45.716Z,100688.59
2023-04-28T09:44:19.230Z,100686.56
2023-04-28T09:46:49.254Z,100682.84
2023-04-28T09:49:25.016Z,100678.28
2023-04-28T09:52:19.394Z,100676.41
2023-04-28T09:54:55.930Z,100670.03
2023-04-28T09:57:24.928Z,100657.47
2023-04-28T09:59:58.430Z,100654.59
2023-04-28T10:04:59.725Z,100658.69
2023-04-28T10:07:28.484Z,100663.94
2023-04-28T10:09:57.060Z,100652.31
2023-04-28T10:12:25.426Z,100653.13
2023-04-28T10:14:54.527Z,100666.53
2023-04-28T10:17:25.438Z,100662.06
2023-04-28T10:19:55.029Z,100657.59
2023-04-28T10:22:49.019Z,100655.72
2023-04-28T10:25:28.519Z,100645.88
2023-04-28T10:28:10.505Z,100651.22
2023-04-28T10:30:54.372Z,100649.47
2023-04-28T10:33:36.343Z,100641.50
2023-04-28T10:36:08.755Z,100645.25
2023-04-28T10:39:14.294Z,100633.78
2023-04-28T10:41:49.695Z,100630.22
2023-04-28T10:44:48.549Z,100625.84
2023-04-28T10:47:19.170Z,100623.25
2023-04-28T10:50:06.956Z,100625.09
2023-04-28T10:52:50.452Z,100616.31
2023-04-28T10:55:36.239Z,100614.63
2023-04-28T10:58:32.949Z,100620.03
2023-04-28T11:01:26.226Z,100613.88
2023-04-28T11:04:00.559Z,100619.28
2023-04-28T11:06:29.697Z,100614.06
2023-04-28T11:09:00.486Z,100611.44
2023-04-28T11:11:30.277Z,100615.94
2023-04-28T11:14:32.993Z,100618.59
2023-04-28T11:17:02.912Z,100612.34
2023-04-28T11:19:32.178Z,100616.78
2023-04-28T11:22:01.574Z,100617.63
2023-04-28T11:24:31.010Z,100621.19
2023-04-28T11:27:00.580Z,100611.44
2023-04-28T11:29:36.115Z,100618.56
2023-04-28T11:32:03.969Z,100607.84
2023-04-28T11:34:31.902Z,100611.44
2023-04-28T11:37:00.315Z,100607.00
2023-04-28T11:39:30.201Z,100600.81
2023-04-28T11:41:58.377Z,100591.09
2023-04-28T11:44:29.071Z,100594.66
2023-04-28T11:47:00.694Z,100599.09
2023-04-28T11:49:30.378Z,100598.22
2023-04-28T11:52:00.482Z,100595.56
2023-04-28T11:54:29.596Z,100590.16
2023-04-28T11:56:58.467Z,100591.94
2023-04-28T11:59:29.142Z,100589.25
2023-04-28T12:01:59.289Z,100577.66
2023-04-28T12:04:28.695Z,100577.72
2023-04-28T12:07:04.780Z,100576.81
2023-04-28T12:09:33.151Z,100570.53
2023-04-28T12:12:03.573Z,100573.19
2023-04-28T12:14:54.263Z,100574.03
2023-04-28T12:17:29.026Z,100572.19
2023-04-28T12:19:59.205Z,100575.66
2023-04-28T12:22:47.242Z,100564.88
2023-04-28T12:25:24.679Z,100569.28
2023-04-28T12:28:04.724Z,100572.00
2023-04-28T12:30:42.631Z,100573.81
2023-04-28T12:33:31.968Z,100565.84
2023-04-28T12:36:07.979Z,100575.59
2023-04-28T12:38:52.012Z,100578.38
2023-04-28T12:41:20.716Z,100576.69
2023-04-28T12:43:53.016Z,100576.81
2023-04-28T12:46:32.308Z,100577.03
2023-04-28T12:49:10.959Z,100582.59
2023-04-28T12:51:41.055Z,100579.19
2023-04-28T12:54:16.493Z,100586.47
2023-04-28T12:56:55.187Z,100575.91
2023-04-28T12:59:36.467Z,100567.97
2023-04-28T13:02:06.011Z,100565.34
2023-04-28T13:04:36.170Z,100557.44
2023-04-28T13:07:11.197Z,100560.19
2023-04-28T13:09:48.265Z,100562.03
2023-04-28T13:12:37.792Z,100559.47
2023-04-28T13:15:15.986Z,100558.66
2023-04-28T13:17:52.181Z,100554.28
2023-04-28T13:20:22.486Z,100557.94
2023-04-28T13:22:54.447Z,100554.44
2023-04-28T13:25:29.513Z,100550.91
2023-04-28T13:28:02.417Z,100552.81
2023-04-28T13:30:36.355Z,100544.88
2023-04-28T13:33:18.211Z,100543.19
2023-04-28T13:35:51.787Z,100537.06
2023-04-28T13:38:26.006Z,100538.00
2023-04-28T13:41:10.061Z,100527.44
2023-04-28T13:43:43.331Z,100514.13
2023-04-28T13:46:14.965Z,100515.00
2023-04-28T13:48:48.601Z,100515.03
2023-04-28T13:51:25.085Z,100512.38
2023-04-28T13:53:52.990Z,100509.72
2023-04-28T13:56:21.517Z,100516.84
2023-04-28T13:58:59.670Z,100513.38
2023-04-28T14:01:29.925Z,100504.56
2023-04-28T14:04:13.375Z,100509.03
2023-04-28T14:06:48.014Z,100508.19
2023-04-28T14:09:25.613Z,100509.09
2023-04-28T14:12:08.432Z,100503.78
2023-04-28T14:14:43.966Z,100505.59
2023-04-28T14:17:18.749Z,100502.06
2023-04-28T14:20:02.477Z,100498.53
2023-04-28T14:22:31.707Z,100495.91
2023-04-28T14:25:12.699Z,100509.22
2023-04-28T14:27:51.401Z,100497.72
2023-04-28T14:30:26.224Z,100496.88
2023-04-28T14:32:59.833Z,100498.66
2023-04-28T14:35:36.059Z,100486.25
2023-04-28T14:38:07.490Z,100480.94
2023-04-28T14:40:35.806Z,100475.59
2023-04-28T14:43:06.660Z,100479.13
2023-04-28T14:45:40.142Z,100476.44
2023-04-28T14:48:11.641Z,100484.44
2023-04-28T14:51:00.784Z,100472.94
2023-04-28T14:53:37.889Z,100475.59
2023-04-28T14:58:47.113Z,100463.22
2023-04-28T15:01:23.299Z,100472.09
2023-04-28T15:03:56.329Z,100474.78
2023-04-28T15:06:29.860Z,100468.53
2023-04-28T15:09:01.139Z,100457.91
2023-04-28T15:11:39.505Z,100458.81
2023-04-28T15:14:10.221Z,100451.69
2023-04-28T15:16:41.124Z,100454.38
2023-04-28T15:19:14.632Z,100449.03
2023-04-28T15:21:44.862Z,100450.84
2023-04-28T15:24:14.295Z,100459.69
2023-04-28T15:26:42.431Z,100457.06
2023-04-28T15:29:10.369Z,100452.69
2023-04-28T15:31:38.464Z,100452.69
2023-04-28T15:34:06.100Z,100443.88
2023-04-28T15:36:39.063Z,100442.13
2023-04-28T15:39:08.458Z,100442.19
2023-04-28T15:41:36.568Z,100438.69
2023-04-28T15:44:04.948Z,100446.69
2023-04-28T15:46:32.941Z,100448.53
2023-04-28T15:49:00.585Z,100445.88
2023-04-28T15:51:28.422Z,100441.53
2023-04-28T15:53:57.067Z,100438.00
2023-04-28T15:56:26.619Z,100441.59
2023-04-28T15:58:54.226Z,100435.44
2023-04-28T16:01:22.540Z,100434.56
2023-04-28T16:03:50.463Z,100439.06
2023-04-28T16:06:18.526Z,100435.53
2023-04-28T16:08:46.878Z,100433.78
2023-04-28T16:11:19.322Z,100432.03
2023-04-28T16:13:49.132Z,100433.81
2023-04-28T16:16:16.947Z,100434.72
2023-04-28T16:18:44.587Z,100435.63
2023-04-28T16:21:16.334Z,100432.09
2023-04-28T16:24:03.079Z,100428.56
2023-04-28T16:26:38.456Z,100422.34
2023-04-28T16:29:11.161Z,100422.34
2023-04-28T16:31:49.034Z,100423.25
2023-04-28T16:37:13.221Z,100422.41
2023-04-28T16:39:51.816Z,100408.22
2023-04-28T16:42:22.157Z,100414.44
2023-04-28T16:44:54.091Z,100410.91
2023-04-28T16:47:22.837Z,100416.22
2023-04-28T16:49:53.642Z,100412.69
2023-04-28T16:52:24.888Z,100412.69
2023-04-28T16:54:59.041Z,100420.69
2023-04-28T16:57:33.556Z,100407.41
2023-04-28T17:00:10.627Z,100402.09
2023-04-28T17:02:42.362Z,100414.50
2023-04-28T17:05:15.655Z,100399.44
2023-04-28T17:07:50.921Z,100401.22
2023-04-28T17:10:23.509Z,100388.78
2023-04-28T17:12:51.410Z,100387.91
2023-04-28T17:15:20.492Z,100386.13
2023-04-28T17:17:49.754Z,100381.72
2023-04-28T17:20:20.000Z,100381.72
2023-04-28T17:22:50.314Z,100379.94
2023-04-28T17:25:19.605Z,100372.84
2023-04-28T17:27:47.432Z,100377.28
2023-04-28T17:30:15.361Z,100375.50
2023-04-28T17:32:44.768Z,100383.47
2023-04-28T17:35:12.485Z,100377.28
2023-04-28T17:37:40.359Z,100377.31
2023-04-28T17:40:09.417Z,100380.88
2023-04-28T17:42:37.083Z,100372.00
2023-04-28T17:45:10.065Z,100363.16
2023-04-28T17:47:37.881Z,100372.94
2023-04-28T17:50:08.294Z,100365.81
2023-04-28T17:52:36.398Z,100364.06
2023-04-28T17:55:04.235Z,100370.28
2023-04-28T17:57:32.376Z,100363.19
2023-04-28T17:59:59.997Z,100367.63
2023-04-28T18:02:27.898Z,100364.09
2023-04-28T18:04:56.063Z,100372.09
2023-04-28T18:07:25.134Z,100372.09
2023-04-28T18:10:00.165Z,100378.28
2023-04-28T18:12:37.482Z,100365.00
2023-04-28T18:15:05.993Z,100364.13
2023-04-28T18:17:34.070Z,100361.47
2023-04-28T18:20:06.240Z,100361.50
2023-04-28T18:22:35.723Z,100357.06
2023-04-28T18:25:03.728Z,100366.81
2023-04-28T18:27:31.382Z,100354.41
2023-04-28T18:29:59.020Z,100359.72
2023-04-28T18:32:29.136Z,100361.53
2023-04-28T18:34:57.213Z,100365.97
2023-04-28T18:37:24.845Z,100362.44
2023-04-28T18:39:57.310Z,100361.53
2023-04-28T18:42:27.297Z,100360.66
2023-04-28T18:44:56.333Z,100359.81
2023-04-28T18:47:24.161Z,100352.72
2023-04-28T18:49:52.296Z,100358.94
2023-04-28T18:52:19.954Z,100351.88
2023-04-28T18:54:47.701Z,100352.78
2023-04-28T18:57:17.286Z,100356.31
2023-04-28T18:59:44.891Z,100344.84
2023-04-28T19:02:12.614Z,100347.50
2023-04-28T19:04:42.127Z,100351.03
2023-04-28T19:07:09.940Z,100350.19
2023-04-28T19:09:37.542Z,100352.84
2023-04-28T19:12:05.766Z,100356.41
2023-04-28T19:14:35.974Z,100353.78
2023-04-28T19:17:03.806Z,100359.09
2023-04-28T19:19:31.664Z,100355.59
2023-04-28T19:21:59.320Z,100352.94
2023-04-28T19:24:29.205Z,100344.06
2023-04-28T19:26:58.103Z,100341.47
2023-04-28T19:29:25.738Z,100342.34
2023-04-28T19:31:54.704Z,100336.16
2023-04-28T19:34:22.910Z,100337.91
2023-04-28T19:36:51.459Z,100329.09
2023-04-28T19:39:22.489Z,100329.09
2023-04-28T19:41:54.613Z,100326.44
2023-04-28T19:44:48.901Z,100317.59
2023-04-28T19:47:25.380Z,100314.06
2023-04-28T19:49:55.595Z,100315.81
2023-04-28T19:52:27.705Z,100323.78
2023-04-28T19:54:58.340Z,100316.72
2023-04-28T19:57:26.204Z,100325.59
2023-04-28T19:59:54.494Z,100325.59
2023-04-28T20:02:29.565Z,100323.84
2023-04-28T20:05:00.960Z,100315.00
2023-04-28T20:07:29.037Z,100330.06
2023-04-28T20:10:03.774Z,100316.81
2023-04-28T20:12:34.422Z,100316.88
2023-04-28T20:15:02.340Z,100315.97
2023-04-28T20:17:31.929Z,100314.25
2023-04-28T20:20:00.069Z,100308.06
2023-04-28T20:22:28.271Z,100296.56
2023-04-28T20:24:57.819Z,100308.06
2023-04-28T20:27:25.811Z,100309.84
2023-04-28T20:29:54.926Z,100318.69
2023-04-28T20:32:24.121Z,100317.81
2023-04-28T20:34:59.108Z,100326.66
2023-04-28T20:37:27.127Z,100331.09
2023-04-28T20:39:55.014Z,100316.97
2023-04-28T20:42:23.225Z,100321.34
2023-04-28T20:44:51.909Z,100306.34
2023-04-28T20:47:19.639Z,100307.22
2023-04-28T20:49:47.997Z,100291.31
2023-04-28T20:52:18.482Z,100304.56
2023-04-28T20:54:46.858Z,100307.22
2023-04-28T20:57:14.542Z,100304.56
2023-04-28T20:59:42.311Z,100303.69
2023-04-28T21:02:10.010Z,100294.81
2023-04-28T21:04:37.692Z,100300.13
2023-04-28T21:07:06.020Z,100299.25
2023-04-28T21:09:35.885Z,100295.72
2023-04-28T21:12:04.335Z,100293.06
2023-04-28T21:14:35.449Z,100286.88
2023-04-28T21:17:03.717Z,100275.38
2023-04-28T21:19:32.092Z,100259.47
2023-04-28T21:21:59.933Z,100271.88
2023-04-28T21:24:27.538Z,100281.63
2023-04-28T21:26:56.486Z,100283.38
2023-04-28T21:29:24.103Z,100278.06
2023-04-28T21:31:51.773Z,100274.53
2023-04-28T21:34:19.407Z,100275.41
2023-04-28T21:36:47.043Z,100278.97
2023-04-28T21:39:14.707Z,100271.00
2023-04-28T21:41:42.397Z,100277.19
2023-04-28T21:44:11.393Z,100272.75
2023-04-28T21:46:39.157Z,100265.69
2023-04-28T21:49:07.649Z,100266.59
2023-04-28T21:51:35.354Z,100264.84
2023-04-28T21:54:03.736Z,100271.03
2023-04-28T21:56:31.405Z,100265.69
2023-04-28T21:59:00.046Z,100259.50
2023-04-28T22:01:29.154Z,100267.44
2023-04-28T22:03:57.277Z,100263.06
2023-04-28T22:06:25.149Z,100261.28
2023-04-28T22:08:52.819Z,100252.44
2023-04-28T22:11:20.588Z,100255.09
2023-04-28T22:13:48.266Z,100253.31
2023-04-28T22:16:16.319Z,100263.06
2023-04-28T22:18:45.290Z,100254.25
2023-04-28T22:21:13.917Z,100258.63
2023-04-28T22:23:41.622Z,100258.63
2023-04-28T22:26:09.267Z,100254.25
2023-04-28T22:28:37.452Z,100258.63
2023-04-28T22:31:05.171Z,100251.59
2023-04-28T22:33:33.313Z,100256.91
2023-04-28T22:36:02.341Z,100258.69
2023-04-28T22:38:29.953Z,100255.13
2023-04-28T22:40:58.132Z,100256.06
2023-04-28T22:43:25.932Z,100253.41
2023-04-28T22:45:53.679Z,100257.78
2023-04-28T22:48:21.522Z,100257.78
2023-04-28T22:50:49.487Z,100255.13
2023-04-28T22:53:19.553Z,100256.06
2023-04-28T22:55:47.297Z,100258.72
2023-04-28T22:58:14.988Z,100250.75
2023-04-28T23:00:42.794Z,100251.63
2023-04-28T23:03:10.476Z,100249.84
2023-04-28T23:05:38.893Z,100247.22
2023-04-28T23:08:06.538Z,100243.66
2023-04-28T23:10:35.559Z,100248.09
2023-04-28T23:13:03.181Z,100251.63
2023-04-28T23:15:30.983Z,100249.88
2023-04-28T23:17:58.724Z,100253.41
2023-04-28T23:20:26.436Z,100244.59
2023-04-28T23:22:56.666Z,100248.13
2023-04-28T23:25:24.365Z,100248.13
2023-04-28T23:27:53.420Z,100246.34
2023-04-28T23:30:21.590Z,100246.34
2023-04-28T23:32:49.362Z,100250.78
2023-04-28T23:35:17.164Z,100247.25
2023-04-28T23:37:44.764Z,100256.06
2023-04-28T23:40:13.228Z,100249.88
2023-04-28T23:42:41.075Z,100250.75
2023-04-28T23:45:11.065Z,100242.78
2023-04-28T23:47:38.733Z,100229.50
2023-04-28T23:50:08.227Z,100233.00
2023-04-28T23:52:36.349Z,100235.66
2023-04-28T23:55:04.026Z,100230.34
2023-04-28T23:57:31.719Z,100232.94
2023-04-28T23:59:59.317Z,100226.72
